Hickam AFB, Hawaii
Current Conditions -  °F | °C
As of 6:53 AM on Tuesday 21 Oct 2014 (Local Time) from PHNL Reporting Station
Scattered Clouds Scattered Clouds  
Wind Chill: 77°   Ceiling: Unl
Heat Index: 79°   Visibility: 10mi
Dew Point: 70°   Wind: 0mph
Humidity: 79%   Direction: NA
Pressure: 29.99"   Gusts: NA
Location:  21.31°N, 157.93°W
Report Text: PHNL 211653Z 00000KT 10SM FEW030 SCT065 25/21 A2999 RMK AO2 SLP154 T02500211 $
Loading
Personal Weather Stations






























Interactive Weather Map
Tropical Storm Tracking
New forecast layout! Learn more

10-Day Weather Forecast

Advertisements
Track Severe Weather on mobile